sensor_id;sensor_type;location;lat;lon;timestamp;temperature;humidity
45693;DHT22;31402;44.752;-0.374;2022-11-23T00:01:35;12.20;99.90
45693;DHT22;31402;44.752;-0.374;2022-11-23T00:04:06;12.20;99.90
45693;DHT22;31402;44.752;-0.374;2022-11-23T00:06:33;12.10;99.90
45693;DHT22;31402;44.752;-0.374;2022-11-23T00:08:59;12.10;99.90
45693;DHT22;31402;44.752;-0.374;2022-11-23T00:11:26;12.20;99.90
45693;DHT22;31402;44.752;-0.374;2022-11-23T00:13:53;12.30;99.90
45693;DHT22;31402;44.752;-0.374;2022-11-23T00:16:22;12.30;99.90
45693;DHT22;31402;44.752;-0.374;2022-11-23T00:18:50;12.40;99.90
45693;DHT22;31402;44.752;-0.374;2022-11-23T00:21:17;12.40;99.90
45693;DHT22;31402;44.752;-0.374;2022-11-23T00:23:44;12.40;99.90
45693;DHT22;31402;44.752;-0.374;2022-11-23T00:26:10;12.40;99.90
45693;DHT22;31402;44.752;-0.374;2022-11-23T00:28:36;12.50;99.90
45693;DHT22;31402;44.752;-0.374;2022-11-23T00:31:16;12.50;99.90
45693;DHT22;31402;44.752;-0.374;2022-11-23T00:33:42;12.50;99.90
45693;DHT22;31402;44.752;-0.374;2022-11-23T00:36:13;12.70;99.90
45693;DHT22;31402;44.752;-0.374;2022-11-23T00:38:41;12.80;99.90
45693;DHT22;31402;44.752;-0.374;2022-11-23T00:41:10;12.70;99.90
45693;DHT22;31402;44.752;-0.374;2022-11-23T00:43:36;12.90;99.90
45693;DHT22;31402;44.752;-0.374;2022-11-23T00:46:07;13.00;99.90
45693;DHT22;31402;44.752;-0.374;2022-11-23T00:48:33;13.00;99.90
45693;DHT22;31402;44.752;-0.374;2022-11-23T00:51:02;13.10;99.90
45693;DHT22;31402;44.752;-0.374;2022-11-23T00:53:28;13.10;99.90
45693;DHT22;31402;44.752;-0.374;2022-11-23T00:55:54;13.10;99.90
45693;DHT22;31402;44.752;-0.374;2022-11-23T00:58:21;13.20;99.90
45693;DHT22;31402;44.752;-0.374;2022-11-23T01:00:47;13.30;99.90
45693;DHT22;31402;44.752;-0.374;2022-11-23T01:03:13;13.20;99.90
45693;DHT22;31402;44.752;-0.374;2022-11-23T01:05:39;13.30;99.90
45693;DHT22;31402;44.752;-0.374;2022-11-23T01:08:06;13.30;99.90
45693;DHT22;31402;44.752;-0.374;2022-11-23T01:10:32;13.30;99.90
45693;DHT22;31402;44.752;-0.374;2022-11-23T01:12:58;13.20;99.90
45693;DHT22;31402;44.752;-0.374;2022-11-23T01:15:24;13.20;99.90
45693;DHT22;31402;44.752;-0.374;2022-11-23T01:17:50;13.30;99.90
45693;DHT22;31402;44.752;-0.374;2022-11-23T01:20:16;13.50;99.90
45693;DHT22;31402;44.752;-0.374;2022-11-23T01:22:42;13.50;99.90
45693;DHT22;31402;44.752;-0.374;2022-11-23T01:25:07;13.60;99.90
45693;DHT22;31402;44.752;-0.374;2022-11-23T01:27:33;13.70;99.90
45693;DHT22;31402;44.752;-0.374;2022-11-23T01:29:59;13.70;99.90
45693;DHT22;31402;44.752;-0.374;2022-11-23T01:32:25;13.80;99.90
45693;DHT22;31402;44.752;-0.374;2022-11-23T01:34:51;13.80;99.90
45693;DHT22;31402;44.752;-0.374;2022-11-23T01:37:17;13.80;99.90
45693;DHT22;31402;44.752;-0.374;2022-11-23T01:39:42;13.90;99.90
45693;DHT22;31402;44.752;-0.374;2022-11-23T01:42:08;13.90;99.90
45693;DHT22;31402;44.752;-0.374;2022-11-23T01:44:35;13.90;99.90
45693;DHT22;31402;44.752;-0.374;2022-11-23T01:47:05;13.90;99.90
45693;DHT22;31402;44.752;-0.374;2022-11-23T01:49:44;13.90;99.90
45693;DHT22;31402;44.752;-0.374;2022-11-23T01:52:16;13.80;99.90
45693;DHT22;31402;44.752;-0.374;2022-11-23T01:54:52;13.90;99.90
45693;DHT22;31402;44.752;-0.374;2022-11-23T01:57:29;13.90;99.90
45693;DHT22;31402;44.752;-0.374;2022-11-23T01:59:56;14.00;99.90
45693;DHT22;31402;44.752;-0.374;2022-11-23T02:02:22;14.00;99.90
45693;DHT22;31402;44.752;-0.374;2022-11-23T02:04:52;14.00;99.90
45693;DHT22;31402;44.752;-0.374;2022-11-23T02:07:20;14.10;99.90
45693;DHT22;31402;44.752;-0.374;2022-11-23T02:09:49;14.10;99.90
45693;DHT22;31402;44.752;-0.374;2022-11-23T02:12:15;14.10;99.90
45693;DHT22;31402;44.752;-0.374;2022-11-23T02:14:41;14.10;99.90
45693;DHT22;31402;44.752;-0.374;2022-11-23T02:17:07;14.10;99.90
45693;DHT22;31402;44.752;-0.374;2022-11-23T02:22:48;14.20;99.90
45693;DHT22;31402;44.752;-0.374;2022-11-23T02:25:47;14.10;99.90
45693;DHT22;31402;44.752;-0.374;2022-11-23T02:28:22;14.10;99.90
45693;DHT22;31402;44.752;-0.374;2022-11-23T02:30:50;14.10;99.90
45693;DHT22;31402;44.752;-0.374;2022-11-23T02:33:17;14.20;99.90
45693;DHT22;31402;44.752;-0.374;2022-11-23T02:35:55;14.20;99.90
45693;DHT22;31402;44.752;-0.374;2022-11-23T02:38:22;14.20;99.90
45693;DHT22;31402;44.752;-0.374;2022-11-23T02:40:49;14.30;99.90
45693;DHT22;31402;44.752;-0.374;2022-11-23T02:43:15;14.20;99.90
45693;DHT22;31402;44.752;-0.374;2022-11-23T02:45:55;14.30;99.90
45693;DHT22;31402;44.752;-0.374;2022-11-23T02:48:22;14.20;99.90
45693;DHT22;31402;44.752;-0.374;2022-11-23T02:50:48;14.20;99.90
45693;DHT22;31402;44.752;-0.374;2022-11-23T02:53:14;14.20;99.90
45693;DHT22;31402;44.752;-0.374;2022-11-23T02:55:39;14.20;99.90
45693;DHT22;31402;44.752;-0.374;2022-11-23T02:58:06;14.10;99.90
45693;DHT22;31402;44.752;-0.374;2022-11-23T03:00:32;14.20;99.90
45693;DHT22;31402;44.752;-0.374;2022-11-23T03:02:59;14.10;99.90
45693;DHT22;31402;44.752;-0.374;2022-11-23T03:05:26;14.10;99.90
45693;DHT22;31402;44.752;-0.374;2022-11-23T03:07:51;14.10;99.90
45693;DHT22;31402;44.752;-0.374;2022-11-23T03:10:18;14.10;99.90
45693;DHT22;31402;44.752;-0.374;2022-11-23T03:12:44;14.00;99.90
45693;DHT22;31402;44.752;-0.374;2022-11-23T03:15:10;14.10;99.90
45693;DHT22;31402;44.752;-0.374;2022-11-23T03:17:36;14.00;99.90
45693;DHT22;31402;44.752;-0.374;2022-11-23T03:20:02;14.00;99.90
45693;DHT22;31402;44.752;-0.374;2022-11-23T03:22:28;14.10;99.90
45693;DHT22;31402;44.752;-0.374;2022-11-23T03:24:54;14.10;99.90
45693;DHT22;31402;44.752;-0.374;2022-11-23T03:27:20;14.10;99.90
45693;DHT22;31402;44.752;-0.374;2022-11-23T03:29:46;14.20;99.90
45693;DHT22;31402;44.752;-0.374;2022-11-23T03:32:12;14.10;99.90
45693;DHT22;31402;44.752;-0.374;2022-11-23T03:34:38;14.20;99.90
45693;DHT22;31402;44.752;-0.374;2022-11-23T03:37:03;14.10;99.90
45693;DHT22;31402;44.752;-0.374;2022-11-23T03:39:29;14.10;99.90
45693;DHT22;31402;44.752;-0.374;2022-11-23T03:41:55;14.20;99.90
45693;DHT22;31402;44.752;-0.374;2022-11-23T03:44:21;14.10;99.90
45693;DHT22;31402;44.752;-0.374;2022-11-23T03:46:46;14.00;99.90
45693;DHT22;31402;44.752;-0.374;2022-11-23T03:49:12;14.00;99.90
45693;DHT22;31402;44.752;-0.374;2022-11-23T03:51:38;14.00;99.90
45693;DHT22;31402;44.752;-0.374;2022-11-23T03:54:03;14.00;99.90
45693;DHT22;31402;44.752;-0.374;2022-11-23T03:56:29;14.00;99.90
45693;DHT22;31402;44.752;-0.374;2022-11-23T03:58:55;14.00;99.90
45693;DHT22;31402;44.752;-0.374;2022-11-23T04:01:21;13.90;99.90
45693;DHT22;31402;44.752;-0.374;2022-11-23T04:03:46;14.00;99.90
45693;DHT22;31402;44.752;-0.374;2022-11-23T04:06:12;14.00;99.90
45693;DHT22;31402;44.752;-0.374;2022-11-23T04:08:38;14.00;99.90
45693;DHT22;31402;44.752;-0.374;2022-11-23T04:11:04;14.00;99.90
45693;DHT22;31402;44.752;-0.374;2022-11-23T04:13:29;14.00;99.90
45693;DHT22;31402;44.752;-0.374;2022-11-23T04:15:55;14.00;99.90
45693;DHT22;31402;44.752;-0.374;2022-11-23T04:18:21;14.00;99.90
45693;DHT22;31402;44.752;-0.374;2022-11-23T04:20:46;14.00;99.90
45693;DHT22;31402;44.752;-0.374;2022-11-23T04:23:12;14.10;99.90
45693;DHT22;31402;44.752;-0.374;2022-11-23T04:25:38;14.00;99.90
45693;DHT22;31402;44.752;-0.374;2022-11-23T04:28:03;13.80;99.90
45693;DHT22;31402;44.752;-0.374;2022-11-23T04:30:29;13.70;99.90
45693;DHT22;31402;44.752;-0.374;2022-11-23T04:32:55;13.60;99.90
45693;DHT22;31402;44.752;-0.374;2022-11-23T04:35:21;13.60;99.90
45693;DHT22;31402;44.752;-0.374;2022-11-23T04:37:47;13.60;99.90
45693;DHT22;31402;44.752;-0.374;2022-11-23T04:40:13;13.50;99.90
45693;DHT22;31402;44.752;-0.374;2022-11-23T04:42:39;13.50;99.90
45693;DHT22;31402;44.752;-0.374;2022-11-23T04:45:05;13.50;99.90
45693;DHT22;31402;44.752;-0.374;2022-11-23T04:47:31;13.50;99.90
45693;DHT22;31402;44.752;-0.374;2022-11-23T04:49:57;13.60;99.90
45693;DHT22;31402;44.752;-0.374;2022-11-23T04:52:23;13.70;99.90
45693;DHT22;31402;44.752;-0.374;2022-11-23T04:54:49;13.70;99.90
45693;DHT22;31402;44.752;-0.374;2022-11-23T04:57:14;13.60;99.90
45693;DHT22;31402;44.752;-0.374;2022-11-23T04:59:40;13.50;99.90
45693;DHT22;31402;44.752;-0.374;2022-11-23T05:02:06;13.50;99.90
45693;DHT22;31402;44.752;-0.374;2022-11-23T05:04:33;13.40;99.90
45693;DHT22;31402;44.752;-0.374;2022-11-23T05:06:59;13.40;99.90
45693;DHT22;31402;44.752;-0.374;2022-11-23T05:09:25;13.40;99.90
45693;DHT22;31402;44.752;-0.374;2022-11-23T05:11:50;13.40;99.90
45693;DHT22;31402;44.752;-0.374;2022-11-23T05:14:16;13.30;99.90
45693;DHT22;31402;44.752;-0.374;2022-11-23T05:16:42;13.40;99.90
45693;DHT22;31402;44.752;-0.374;2022-11-23T05:19:08;13.30;99.90
45693;DHT22;31402;44.752;-0.374;2022-11-23T05:21:33;13.30;99.90
45693;DHT22;31402;44.752;-0.374;2022-11-23T05:23:59;13.40;99.90
45693;DHT22;31402;44.752;-0.374;2022-11-23T05:26:25;13.50;99.90
45693;DHT22;31402;44.752;-0.374;2022-11-23T05:28:51;13.50;99.90
45693;DHT22;31402;44.752;-0.374;2022-11-23T05:31:16;13.50;99.90
45693;DHT22;31402;44.752;-0.374;2022-11-23T05:33:42;13.70;99.90
45693;DHT22;31402;44.752;-0.374;2022-11-23T05:36:08;13.80;99.90
45693;DHT22;31402;44.752;-0.374;2022-11-23T05:38:38;14.00;99.90
45693;DHT22;31402;44.752;-0.374;2022-11-23T05:41:04;14.10;99.90
45693;DHT22;31402;44.752;-0.374;2022-11-23T05:43:30;14.00;99.90
45693;DHT22;31402;44.752;-0.374;2022-11-23T05:45:58;14.00;99.90
45693;DHT22;31402;44.752;-0.374;2022-11-23T05:48:24;14.00;99.90
45693;DHT22;31402;44.752;-0.374;2022-11-23T05:50:50;14.00;99.90
45693;DHT22;31402;44.752;-0.374;2022-11-23T05:53:16;14.10;99.90
45693;DHT22;31402;44.752;-0.374;2022-11-23T05:55:42;14.10;99.90
45693;DHT22;31402;44.752;-0.374;2022-11-23T05:58:07;14.00;99.90
45693;DHT22;31402;44.752;-0.374;2022-11-23T06:00:33;14.10;99.90
45693;DHT22;31402;44.752;-0.374;2022-11-23T06:03:00;14.00;99.90
45693;DHT22;31402;44.752;-0.374;2022-11-23T06:05:26;13.90;99.90
45693;DHT22;31402;44.752;-0.374;2022-11-23T06:07:52;13.90;99.90
45693;DHT22;31402;44.752;-0.374;2022-11-23T06:10:18;14.00;99.90
45693;DHT22;31402;44.752;-0.374;2022-11-23T06:12:44;14.10;99.90
45693;DHT22;31402;44.752;-0.374;2022-11-23T06:15:11;14.10;99.90
45693;DHT22;31402;44.752;-0.374;2022-11-23T06:17:37;14.10;99.90
45693;DHT22;31402;44.752;-0.374;2022-11-23T06:20:04;14.20;99.90
45693;DHT22;31402;44.752;-0.374;2022-11-23T06:22:31;14.30;99.90
45693;DHT22;31402;44.752;-0.374;2022-11-23T06:24:56;14.30;99.90
45693;DHT22;31402;44.752;-0.374;2022-11-23T06:27:22;14.30;99.90
45693;DHT22;31402;44.752;-0.374;2022-11-23T06:29:48;14.30;99.90
45693;DHT22;31402;44.752;-0.374;2022-11-23T06:32:14;14.20;99.90
45693;DHT22;31402;44.752;-0.374;2022-11-23T06:34:40;14.20;99.90
45693;DHT22;31402;44.752;-0.374;2022-11-23T06:37:06;14.20;99.90
45693;DHT22;31402;44.752;-0.374;2022-11-23T06:39:32;14.20;99.90
45693;DHT22;31402;44.752;-0.374;2022-11-23T06:41:57;14.30;99.90
45693;DHT22;31402;44.752;-0.374;2022-11-23T06:44:23;14.20;99.90
45693;DHT22;31402;44.752;-0.374;2022-11-23T06:46:49;14.20;99.90
45693;DHT22;31402;44.752;-0.374;2022-11-23T06:49:15;14.10;99.90
45693;DHT22;31402;44.752;-0.374;2022-11-23T06:51:44;14.20;99.90
45693;DHT22;31402;44.752;-0.374;2022-11-23T06:54:10;14.30;99.90
45693;DHT22;31402;44.752;-0.374;2022-11-23T06:56:36;14.40;99.90
45693;DHT22;31402;44.752;-0.374;2022-11-23T06:59:02;14.40;99.90
45693;DHT22;31402;44.752;-0.374;2022-11-23T07:01:28;14.40;99.90
45693;DHT22;31402;44.752;-0.374;2022-11-23T07:03:54;14.40;99.90
45693;DHT22;31402;44.752;-0.374;2022-11-23T07:06:20;14.30;99.90
45693;DHT22;31402;44.752;-0.374;2022-11-23T07:08:46;14.40;99.90
45693;DHT22;31402;44.752;-0.374;2022-11-23T07:11:12;14.50;99.90
45693;DHT22;31402;44.752;-0.374;2022-11-23T07:13:38;14.50;99.90
45693;DHT22;31402;44.752;-0.374;2022-11-23T07:16:04;14.40;99.90
45693;DHT22;31402;44.752;-0.374;2022-11-23T07:18:31;14.50;99.90
45693;DHT22;31402;44.752;-0.374;2022-11-23T07:20:57;14.50;99.90
45693;DHT22;31402;44.752;-0.374;2022-11-23T07:23:24;14.50;99.90
45693;DHT22;31402;44.752;-0.374;2022-11-23T07:25:50;14.40;99.90
45693;DHT22;31402;44.752;-0.374;2022-11-23T07:28:16;14.40;99.90
45693;DHT22;31402;44.752;-0.374;2022-11-23T07:30:42;14.50;99.90
45693;DHT22;31402;44.752;-0.374;2022-11-23T07:33:10;14.40;99.90
45693;DHT22;31402;44.752;-0.374;2022-11-23T07:35:37;14.30;99.90
45693;DHT22;31402;44.752;-0.374;2022-11-23T07:38:04;14.30;99.90
45693;DHT22;31402;44.752;-0.374;2022-11-23T07:40:33;14.30;99.90
45693;DHT22;31402;44.752;-0.374;2022-11-23T07:43:01;14.30;99.90
45693;DHT22;31402;44.752;-0.374;2022-11-23T07:45:27;14.40;99.90
45693;DHT22;31402;44.752;-0.374;2022-11-23T07:48:00;14.50;99.90
45693;DHT22;31402;44.752;-0.374;2022-11-23T07:50:26;14.50;99.90
45693;DHT22;31402;44.752;-0.374;2022-11-23T07:52:53;14.50;99.90
45693;DHT22;31402;44.752;-0.374;2022-11-23T07:55:18;14.50;99.90
45693;DHT22;31402;44.752;-0.374;2022-11-23T07:57:44;14.50;99.90
45693;DHT22;31402;44.752;-0.374;2022-11-23T08:00:10;14.40;99.90
45693;DHT22;31402;44.752;-0.374;2022-11-23T08:02:37;14.40;99.90
45693;DHT22;31402;44.752;-0.374;2022-11-23T08:05:03;14.30;99.90
45693;DHT22;31402;44.752;-0.374;2022-11-23T08:07:29;14.30;99.90
45693;DHT22;31402;44.752;-0.374;2022-11-23T08:09:55;14.40;99.90
45693;DHT22;31402;44.752;-0.374;2022-11-23T08:12:21;14.50;99.90
45693;DHT22;31402;44.752;-0.374;2022-11-23T08:14:47;14.60;99.90
45693;DHT22;31402;44.752;-0.374;2022-11-23T08:17:12;14.60;99.90
45693;DHT22;31402;44.752;-0.374;2022-11-23T08:19:38;14.60;99.90
45693;DHT22;31402;44.752;-0.374;2022-11-23T08:22:04;14.70;99.90
45693;DHT22;31402;44.752;-0.374;2022-11-23T08:24:29;14.70;99.90
45693;DHT22;31402;44.752;-0.374;2022-11-23T08:26:55;14.50;99.90
45693;DHT22;31402;44.752;-0.374;2022-11-23T08:29:21;14.40;99.90
45693;DHT22;31402;44.752;-0.374;2022-11-23T08:31:47;14.40;99.90
45693;DHT22;31402;44.752;-0.374;2022-11-23T08:34:12;14.50;99.90
45693;DHT22;31402;44.752;-0.374;2022-11-23T08:36:38;14.50;99.90
45693;DHT22;31402;44.752;-0.374;2022-11-23T08:39:04;14.70;99.90
45693;DHT22;31402;44.752;-0.374;2022-11-23T08:41:30;14.70;99.90
45693;DHT22;31402;44.752;-0.374;2022-11-23T08:43:56;14.80;99.90
45693;DHT22;31402;44.752;-0.374;2022-11-23T08:46:22;14.80;99.90
45693;DHT22;31402;44.752;-0.374;2022-11-23T08:48:47;15.00;99.90
45693;DHT22;31402;44.752;-0.374;2022-11-23T08:51:13;15.00;99.90
45693;DHT22;31402;44.752;-0.374;2022-11-23T08:53:39;15.00;99.90
45693;DHT22;31402;44.752;-0.374;2022-11-23T08:56:06;15.10;99.90
45693;DHT22;31402;44.752;-0.374;2022-11-23T08:58:32;15.10;99.90
45693;DHT22;31402;44.752;-0.374;2022-11-23T09:00:58;15.20;99.90
45693;DHT22;31402;44.752;-0.374;2022-11-23T09:03:24;15.30;99.90
45693;DHT22;31402;44.752;-0.374;2022-11-23T09:05:49;15.40;99.90
45693;DHT22;31402;44.752;-0.374;2022-11-23T09:08:16;15.60;99.90
45693;DHT22;31402;44.752;-0.374;2022-11-23T09:10:42;15.70;99.90
45693;DHT22;31402;44.752;-0.374;2022-11-23T09:13:08;15.70;99.90
45693;DHT22;31402;44.752;-0.374;2022-11-23T09:15:34;15.80;99.90
45693;DHT22;31402;44.752;-0.374;2022-11-23T09:18:00;15.90;99.90
45693;DHT22;31402;44.752;-0.374;2022-11-23T09:20:26;16.10;99.90
45693;DHT22;31402;44.752;-0.374;2022-11-23T09:22:53;16.40;99.90
45693;DHT22;31402;44.752;-0.374;2022-11-23T09:25:19;16.70;99.90
45693;DHT22;31402;44.752;-0.374;2022-11-23T09:27:45;16.90;99.90
45693;DHT22;31402;44.752;-0.374;2022-11-23T09:30:11;17.20;99.90
45693;DHT22;31402;44.752;-0.374;2022-11-23T09:32:37;17.50;99.90
45693;DHT22;31402;44.752;-0.374;2022-11-23T09:35:04;17.70;99.90
45693;DHT22;31402;44.752;-0.374;2022-11-23T09:37:30;17.80;99.90
45693;DHT22;31402;44.752;-0.374;2022-11-23T09:39:55;17.80;99.90
45693;DHT22;31402;44.752;-0.374;2022-11-23T09:48:17;18.20;99.90
45693;DHT22;31402;44.752;-0.374;2022-11-23T09:53:24;18.20;99.90
45693;DHT22;31402;44.752;-0.374;2022-11-23T09:55:55;18.30;99.90
45693;DHT22;31402;44.752;-0.374;2022-11-23T09:58:26;18.50;99.90
45693;DHT22;31402;44.752;-0.374;2022-11-23T10:01:00;18.60;99.90
45693;DHT22;31402;44.752;-0.374;2022-11-23T10:03:27;18.70;99.90
45693;DHT22;31402;44.752;-0.374;2022-11-23T10:06:15;18.70;99.90
45693;DHT22;31402;44.752;-0.374;2022-11-23T10:11:38;19.00;99.90
45693;DHT22;31402;44.752;-0.374;2022-11-23T10:22:47;19.40;99.90
45693;DHT22;31402;44.752;-0.374;2022-11-23T10:25:18;19.40;99.90
45693;DHT22;31402;44.752;-0.374;2022-11-23T10:27:46;19.50;99.90
45693;DHT22;31402;44.752;-0.374;2022-11-23T10:30:14;19.50;99.90
45693;DHT22;31402;44.752;-0.374;2022-11-23T10:32:57;19.50;99.90
45693;DHT22;31402;44.752;-0.374;2022-11-23T10:35:33;19.60;99.90
45693;DHT22;31402;44.752;-0.374;2022-11-23T10:38:14;19.70;99.90
45693;DHT22;31402;44.752;-0.374;2022-11-23T10:40:56;19.80;99.90
45693;DHT22;31402;44.752;-0.374;2022-11-23T10:44:25;19.80;99.90
45693;DHT22;31402;44.752;-0.374;2022-11-23T10:46:25;19.90;99.90
45693;DHT22;31402;44.752;-0.374;2022-11-23T10:48:53;19.90;99.90
45693;DHT22;31402;44.752;-0.374;2022-11-23T10:51:31;19.90;99.90
45693;DHT22;31402;44.752;-0.374;2022-11-23T10:54:00;19.70;98.90
45693;DHT22;31402;44.752;-0.374;2022-11-23T10:56:27;19.70;99.60
45693;DHT22;31402;44.752;-0.374;2022-11-23T10:58:53;19.80;99.00
45693;DHT22;31402;44.752;-0.374;2022-11-23T11:01:21;19.90;99.00
45693;DHT22;31402;44.752;-0.374;2022-11-23T11:03:52;19.90;99.00
45693;DHT22;31402;44.752;-0.374;2022-11-23T11:06:32;19.80;99.10
45693;DHT22;31402;44.752;-0.374;2022-11-23T11:09:18;19.90;99.20
45693;DHT22;31402;44.752;-0.374;2022-11-23T11:11:47;19.90;98.50
45693;DHT22;31402;44.752;-0.374;2022-11-23T11:14:18;20.00;98.80
45693;DHT22;31402;44.752;-0.374;2022-11-23T11:16:56;20.10;98.90
45693;DHT22;31402;44.752;-0.374;2022-11-23T11:19:27;20.00;99.00
45693;DHT22;31402;44.752;-0.374;2022-11-23T11:21:53;20.00;98.90
45693;DHT22;31402;44.752;-0.374;2022-11-23T11:27:01;19.80;98.50
45693;DHT22;31402;44.752;-0.374;2022-11-23T11:29:32;19.90;99.20
45693;DHT22;31402;44.752;-0.374;2022-11-23T11:31:59;20.10;99.00
45693;DHT22;31402;44.752;-0.374;2022-11-23T11:34:48;20.30;98.80
45693;DHT22;31402;44.752;-0.374;2022-11-23T11:39:52;20.50;97.50
45693;DHT22;31402;44.752;-0.374;2022-11-23T11:43:20;20.60;97.10
45693;DHT22;31402;44.752;-0.374;2022-11-23T11:45:24;20.50;96.60
45693;DHT22;31402;44.752;-0.374;2022-11-23T11:48:17;20.30;96.10
45693;DHT22;31402;44.752;-0.374;2022-11-23T11:50:54;19.90;96.30
45693;DHT22;31402;44.752;-0.374;2022-11-23T11:53:37;19.40;97.00
45693;DHT22;31402;44.752;-0.374;2022-11-23T11:56:15;19.00;97.90
45693;DHT22;31402;44.752;-0.374;2022-11-23T11:58:48;18.70;98.90
45693;DHT22;31402;44.752;-0.374;2022-11-23T12:01:35;18.50;99.30
45693;DHT22;31402;44.752;-0.374;2022-11-23T12:04:16;18.40;98.80
45693;DHT22;31402;44.752;-0.374;2022-11-23T12:09:29;18.20;99.40
45693;DHT22;31402;44.752;-0.374;2022-11-23T12:11:57;18.30;99.10
45693;DHT22;31402;44.752;-0.374;2022-11-23T12:14:23;18.20;99.40
45693;DHT22;31402;44.752;-0.374;2022-11-23T12:20:03;18.00;99.00
45693;DHT22;31402;44.752;-0.374;2022-11-23T12:23:05;18.00;99.70
45693;DHT22;31402;44.752;-0.374;2022-11-23T12:25:35;17.90;99.70
45693;DHT22;31402;44.752;-0.374;2022-11-23T12:28:31;17.70;99.90
45693;DHT22;31402;44.752;-0.374;2022-11-23T12:42:48;18.40;99.90
45693;DHT22;31402;44.752;-0.374;2022-11-23T12:45:27;18.60;99.90
45693;DHT22;31402;44.752;-0.374;2022-11-23T12:53:53;18.80;99.90
45693;DHT22;31402;44.752;-0.374;2022-11-23T12:56:45;18.70;99.40
45693;DHT22;31402;44.752;-0.374;2022-11-23T12:59:15;18.60;99.00
45693;DHT22;31402;44.752;-0.374;2022-11-23T13:01:45;18.50;98.40
45693;DHT22;31402;44.752;-0.374;2022-11-23T13:04:43;18.50;98.90
45693;DHT22;31402;44.752;-0.374;2022-11-23T13:21:29;18.80;99.30
45693;DHT22;31402;44.752;-0.374;2022-11-23T13:23:58;18.80;99.10
45693;DHT22;31402;44.752;-0.374;2022-11-23T13:26:26;18.80;98.60
45693;DHT22;31402;44.752;-0.374;2022-11-23T13:40:34;18.90;98.70
45693;DHT22;31402;44.752;-0.374;2022-11-23T13:45:39;18.80;99.00
45693;DHT22;31402;44.752;-0.374;2022-11-23T13:50:56;18.70;98.40
45693;DHT22;31402;44.752;-0.374;2022-11-23T13:53:37;18.60;98.80
45693;DHT22;31402;44.752;-0.374;2022-11-23T13:58:50;18.70;98.90
45693;DHT22;31402;44.752;-0.374;2022-11-23T14:04:22;18.70;98.60
45693;DHT22;31402;44.752;-0.374;2022-11-23T14:09:50;18.60;98.90
45693;DHT22;31402;44.752;-0.374;2022-11-23T14:12:41;18.60;99.10
45693;DHT22;31402;44.752;-0.374;2022-11-23T14:15:19;18.70;97.90
45693;DHT22;31402;44.752;-0.374;2022-11-23T14:32:49;18.30;96.70
45693;DHT22;31402;44.752;-0.374;2022-11-23T14:40:52;18.30;97.00
45693;DHT22;31402;44.752;-0.374;2022-11-23T14:43:20;18.30;96.40
45693;DHT22;31402;44.752;-0.374;2022-11-23T14:45:46;18.30;96.60
45693;DHT22;31402;44.752;-0.374;2022-11-23T14:51:09;18.30;96.70
45693;DHT22;31402;44.752;-0.374;2022-11-23T14:53:42;18.20;96.70
45693;DHT22;31402;44.752;-0.374;2022-11-23T14:58:55;18.00;96.70
45693;DHT22;31402;44.752;-0.374;2022-11-23T15:01:24;18.10;96.20
45693;DHT22;31402;44.752;-0.374;2022-11-23T15:03:58;18.00;96.60
45693;DHT22;31402;44.752;-0.374;2022-11-23T15:06:29;17.90;96.40
45693;DHT22;31402;44.752;-0.374;2022-11-23T15:11:37;17.90;95.70
45693;DHT22;31402;44.752;-0.374;2022-11-23T15:14:18;17.90;96.20
45693;DHT22;31402;44.752;-0.374;2022-11-23T15:16:44;17.80;96.20
45693;DHT22;31402;44.752;-0.374;2022-11-23T15:19:26;17.70;96.10
45693;DHT22;31402;44.752;-0.374;2022-11-23T15:21:54;17.60;96.60
45693;DHT22;31402;44.752;-0.374;2022-11-23T15:24:22;17.50;96.40
45693;DHT22;31402;44.752;-0.374;2022-11-23T15:26:50;17.50;96.80
45693;DHT22;31402;44.752;-0.374;2022-11-23T15:29:33;17.50;96.80
45693;DHT22;31402;44.752;-0.374;2022-11-23T15:32:00;17.50;97.10
45693;DHT22;31402;44.752;-0.374;2022-11-23T15:34:27;17.60;97.10
45693;DHT22;31402;44.752;-0.374;2022-11-23T15:36:54;17.50;97.10
45693;DHT22;31402;44.752;-0.374;2022-11-23T15:39:22;17.50;97.40
45693;DHT22;31402;44.752;-0.374;2022-11-23T15:41:51;17.40;97.50
45693;DHT22;31402;44.752;-0.374;2022-11-23T15:44:26;17.30;97.90
45693;DHT22;31402;44.752;-0.374;2022-11-23T15:47:02;17.30;97.90
45693;DHT22;31402;44.752;-0.374;2022-11-23T15:49:28;17.30;98.40
45693;DHT22;31402;44.752;-0.374;2022-11-23T15:52:00;17.20;98.70
45693;DHT22;31402;44.752;-0.374;2022-11-23T15:54:36;17.20;98.90
45693;DHT22;31402;44.752;-0.374;2022-11-23T15:57:20;17.00;98.70
45693;DHT22;31402;44.752;-0.374;2022-11-23T15:59:58;16.80;98.80
45693;DHT22;31402;44.752;-0.374;2022-11-23T16:02:27;16.80;99.10
45693;DHT22;31402;44.752;-0.374;2022-11-23T16:07:50;16.70;99.10
45693;DHT22;31402;44.752;-0.374;2022-11-23T16:10:22;16.70;99.20
45693;DHT22;31402;44.752;-0.374;2022-11-23T16:12:54;16.50;98.90
45693;DHT22;31402;44.752;-0.374;2022-11-23T16:18:24;16.30;99.00
45693;DHT22;31402;44.752;-0.374;2022-11-23T16:21:00;16.20;99.30
45693;DHT22;31402;44.752;-0.374;2022-11-23T16:23:43;16.20;99.20
45693;DHT22;31402;44.752;-0.374;2022-11-23T16:26:11;16.30;99.20
45693;DHT22;31402;44.752;-0.374;2022-11-23T16:28:39;16.10;98.90
45693;DHT22;31402;44.752;-0.374;2022-11-23T16:31:35;16.10;99.00
45693;DHT22;31402;44.752;-0.374;2022-11-23T16:34:04;16.10;98.90
45693;DHT22;31402;44.752;-0.374;2022-11-23T16:36:33;16.10;99.00
45693;DHT22;31402;44.752;-0.374;2022-11-23T16:38:59;15.90;98.80
45693;DHT22;31402;44.752;-0.374;2022-11-23T16:41:25;15.90;98.90
45693;DHT22;31402;44.752;-0.374;2022-11-23T16:43:51;15.90;98.90
45693;DHT22;31402;44.752;-0.374;2022-11-23T16:46:20;15.90;99.00
45693;DHT22;31402;44.752;-0.374;2022-11-23T16:48:46;15.80;99.00
45693;DHT22;31402;44.752;-0.374;2022-11-23T16:51:12;15.80;99.00
45693;DHT22;31402;44.752;-0.374;2022-11-23T16:53:45;15.80;99.10
45693;DHT22;31402;44.752;-0.374;2022-11-23T16:56:18;15.90;98.90
45693;DHT22;31402;44.752;-0.374;2022-11-23T16:58:45;15.70;98.60
45693;DHT22;31402;44.752;-0.374;2022-11-23T17:01:18;15.70;98.80
45693;DHT22;31402;44.752;-0.374;2022-11-23T17:03:44;15.60;98.90
45693;DHT22;31402;44.752;-0.374;2022-11-23T17:06:14;15.50;98.80
45693;DHT22;31402;44.752;-0.374;2022-11-23T17:08:44;15.50;99.10
45693;DHT22;31402;44.752;-0.374;2022-11-23T17:11:22;15.40;99.50
45693;DHT22;31402;44.752;-0.374;2022-11-23T17:13:49;15.50;98.60
45693;DHT22;31402;44.752;-0.374;2022-11-23T17:16:18;15.40;99.10
45693;DHT22;31402;44.752;-0.374;2022-11-23T17:18:44;15.40;99.00
45693;DHT22;31402;44.752;-0.374;2022-11-23T17:21:11;15.20;99.00
45693;DHT22;31402;44.752;-0.374;2022-11-23T17:23:37;15.10;99.20
45693;DHT22;31402;44.752;-0.374;2022-11-23T17:26:32;15.10;99.10
45693;DHT22;31402;44.752;-0.374;2022-11-23T17:29:00;15.00;99.10
45693;DHT22;31402;44.752;-0.374;2022-11-23T17:31:27;15.00;99.30
45693;DHT22;31402;44.752;-0.374;2022-11-23T17:33:52;14.90;99.30